sensor_id;sensor_type;location;lat;lon;timestamp;P1;P2;P0
62599;PMS7003;48671;48.922;2.346;2022-09-12T00:00:47;15.75;12.75;10.75
62599;PMS7003;48671;48.922;2.346;2022-09-12T00:03:12;13.25;13.25;10.00
62599;PMS7003;48671;48.922;2.346;2022-09-12T00:05:42;14.25;11.25;7.50
62599;PMS7003;48671;48.922;2.346;2022-09-12T00:08:09;12.00;12.00;10.00
62599;PMS7003;48671;48.922;2.346;2022-09-12T00:10:38;16.00;14.25;8.50
62599;PMS7003;48671;48.922;2.346;2022-09-12T00:13:07;11.00;10.00;8.00
62599;PMS7003;48671;48.922;2.346;2022-09-12T00:15:39;14.25;13.75;9.50
62599;PMS7003;48671;48.922;2.346;2022-09-12T00:18:13;11.50;11.00;8.00
62599;PMS7003;48671;48.922;2.346;2022-09-12T00:20:44;15.50;11.50;8.00
62599;PMS7003;48671;48.922;2.346;2022-09-12T00:23:11;16.50;12.00;10.00
62599;PMS7003;48671;48.922;2.346;2022-09-12T00:25:43;10.00;10.00;8.00
62599;PMS7003;48671;48.922;2.346;2022-09-12T00:28:11;14.25;12.75;10.00
62599;PMS7003;48671;48.922;2.346;2022-09-12T00:30:41;12.25;12.25;9.00
62599;PMS7003;48671;48.922;2.346;2022-09-12T00:33:08;14.00;12.00;9.25
62599;PMS7003;48671;48.922;2.346;2022-09-12T00:35:42;13.75;13.00;10.00
62599;PMS7003;48671;48.922;2.346;2022-09-12T00:38:19;14.00;12.75;10.25
62599;PMS7003;48671;48.922;2.346;2022-09-12T00:40:45;13.00;12.00;9.00
62599;PMS7003;48671;48.922;2.346;2022-09-12T00:43:12;17.75;12.25;9.25
62599;PMS7003;48671;48.922;2.346;2022-09-12T00:45:56;13.25;13.00;10.00
62599;PMS7003;48671;48.922;2.346;2022-09-12T00:48:30;20.00;16.25;11.75
62599;PMS7003;48671;48.922;2.346;2022-09-12T00:50:58;17.25;16.25;10.00
62599;PMS7003;48671;48.922;2.346;2022-09-12T00:53:25;16.00;14.00;11.00
62599;PMS7003;48671;48.922;2.346;2022-09-12T00:55:50;17.25;15.25;11.50
62599;PMS7003;48671;48.922;2.346;2022-09-12T00:58:22;19.00;14.75;11.50
62599;PMS7003;48671;48.922;2.346;2022-09-12T01:00:53;18.25;16.25;11.75
62599;PMS7003;48671;48.922;2.346;2022-09-12T01:03:23;24.75;18.50;11.00
62599;PMS7003;48671;48.922;2.346;2022-09-12T01:08:46;15.25;13.50;9.00
62599;PMS7003;48671;48.922;2.346;2022-09-12T01:11:12;18.50;17.25;13.00
62599;PMS7003;48671;48.922;2.346;2022-09-12T01:13:43;18.75;16.75;11.50
62599;PMS7003;48671;48.922;2.346;2022-09-12T01:16:09;13.50;12.50;10.50
62599;PMS7003;48671;48.922;2.346;2022-09-12T01:24:07;14.50;14.00;9.25
62599;PMS7003;48671;48.922;2.346;2022-09-12T01:32:14;17.50;14.00;9.75
62599;PMS7003;48671;48.922;2.346;2022-09-12T01:38:02;15.00;14.25;10.50
62599;PMS7003;48671;48.922;2.346;2022-09-12T01:40:45;21.00;17.75;10.00
62599;PMS7003;48671;48.922;2.346;2022-09-12T01:43:32;17.00;14.75;9.00
62599;PMS7003;48671;48.922;2.346;2022-09-12T01:46:11;19.75;15.75;10.75
62599;PMS7003;48671;48.922;2.346;2022-09-12T01:51:39;12.75;12.50;9.75
62599;PMS7003;48671;48.922;2.346;2022-09-12T01:54:14;17.00;15.00;10.00
62599;PMS7003;48671;48.922;2.346;2022-09-12T01:56:44;17.75;16.00;12.00
62599;PMS7003;48671;48.922;2.346;2022-09-12T01:59:17;20.25;18.25;11.25
62599;PMS7003;48671;48.922;2.346;2022-09-12T02:01:55;20.00;16.75;11.50
62599;PMS7003;48671;48.922;2.346;2022-09-12T02:04:42;17.50;16.50;11.00
62599;PMS7003;48671;48.922;2.346;2022-09-12T02:07:25;14.75;12.75;9.25
62599;PMS7003;48671;48.922;2.346;2022-09-12T02:10:01;16.50;14.50;10.25
62599;PMS7003;48671;48.922;2.346;2022-09-12T02:12:35;20.75;16.00;11.25
62599;PMS7003;48671;48.922;2.346;2022-09-12T02:15:06;19.00;17.50;11.00
62599;PMS7003;48671;48.922;2.346;2022-09-12T02:17:35;16.50;15.25;11.25
62599;PMS7003;48671;48.922;2.346;2022-09-12T02:20:07;16.50;14.75;11.00
62599;PMS7003;48671;48.922;2.346;2022-09-12T02:22:39;13.75;12.75;9.00
62599;PMS7003;48671;48.922;2.346;2022-09-12T02:25:07;18.75;13.25;9.00
62599;PMS7003;48671;48.922;2.346;2022-09-12T02:27:37;15.00;15.00;10.25
62599;PMS7003;48671;48.922;2.346;2022-09-12T02:30:08;18.00;15.25;11.00
62599;PMS7003;48671;48.922;2.346;2022-09-12T02:41:01;15.50;14.00;9.50
62599;PMS7003;48671;48.922;2.346;2022-09-12T02:43:27;13.75;13.75;10.25
62599;PMS7003;48671;48.922;2.346;2022-09-12T02:45:52;20.50;16.00;11.75
62599;PMS7003;48671;48.922;2.346;2022-09-12T02:48:19;19.00;14.50;11.00
62599;PMS7003;48671;48.922;2.346;2022-09-12T02:50:50;16.25;14.00;10.75
62599;PMS7003;48671;48.922;2.346;2022-09-12T02:53:17;18.00;15.00;11.00
62599;PMS7003;48671;48.922;2.346;2022-09-12T02:55:43;20.00;16.50;10.75
62599;PMS7003;48671;48.922;2.346;2022-09-12T02:58:13;19.75;17.00;10.50
62599;PMS7003;48671;48.922;2.346;2022-09-12T03:00:47;18.00;14.00;10.75
62599;PMS7003;48671;48.922;2.346;2022-09-12T03:06:02;14.75;13.00;10.00
62599;PMS7003;48671;48.922;2.346;2022-09-12T03:11:14;15.25;14.50;9.25
62599;PMS7003;48671;48.922;2.346;2022-09-12T03:14:30;14.75;13.75;11.00
62599;PMS7003;48671;48.922;2.346;2022-09-12T03:19:41;16.25;14.00;10.00
62599;PMS7003;48671;48.922;2.346;2022-09-12T03:22:33;20.75;15.25;11.50
62599;PMS7003;48671;48.922;2.346;2022-09-12T03:27:39;15.75;15.50;12.00
62599;PMS7003;48671;48.922;2.346;2022-09-12T03:30:11;16.25;15.75;10.00
62599;PMS7003;48671;48.922;2.346;2022-09-12T03:32:44;19.00;14.25;9.00
62599;PMS7003;48671;48.922;2.346;2022-09-12T03:35:15;13.25;11.75;7.50
62599;PMS7003;48671;48.922;2.346;2022-09-12T03:37:43;22.50;15.00;9.00
62599;PMS7003;48671;48.922;2.346;2022-09-12T03:40:09;18.75;14.00;10.00
62599;PMS7003;48671;48.922;2.346;2022-09-12T03:42:35;20.75;17.50;11.50
62599;PMS7003;48671;48.922;2.346;2022-09-12T03:45:01;23.25;18.00;13.25
62599;PMS7003;48671;48.922;2.346;2022-09-12T03:47:27;19.25;17.00;12.00
62599;PMS7003;48671;48.922;2.346;2022-09-12T03:49:52;20.25;17.00;11.00
62599;PMS7003;48671;48.922;2.346;2022-09-12T03:52:18;16.33;15.33;10.33
62599;PMS7003;48671;48.922;2.346;2022-09-12T03:54:43;18.50;15.25;10.00
62599;PMS7003;48671;48.922;2.346;2022-09-12T03:57:08;18.00;15.00;10.75
62599;PMS7003;48671;48.922;2.346;2022-09-12T03:59:34;15.75;15.75;10.75
62599;PMS7003;48671;48.922;2.346;2022-09-12T04:01:59;21.75;18.50;10.75
62599;PMS7003;48671;48.922;2.346;2022-09-12T04:04:24;15.75;13.25;9.00
62599;PMS7003;48671;48.922;2.346;2022-09-12T04:06:50;19.25;15.75;9.50
62599;PMS7003;48671;48.922;2.346;2022-09-12T04:09:15;16.50;15.00;11.00
62599;PMS7003;48671;48.922;2.346;2022-09-12T04:11:40;18.00;16.00;11.00
62599;PMS7003;48671;48.922;2.346;2022-09-12T04:14:06;14.25;13.00;10.00
62599;PMS7003;48671;48.922;2.346;2022-09-12T04:16:31;20.00;18.00;11.00
62599;PMS7003;48671;48.922;2.346;2022-09-12T04:18:56;19.50;13.75;9.75
62599;PMS7003;48671;48.922;2.346;2022-09-12T04:21:22;18.00;16.00;12.00
62599;PMS7003;48671;48.922;2.346;2022-09-12T04:23:48;15.25;14.75;9.75
62599;PMS7003;48671;48.922;2.346;2022-09-12T04:26:14;16.25;16.25;10.75
62599;PMS7003;48671;48.922;2.346;2022-09-12T04:28:41;16.25;14.50;10.00
62599;PMS7003;48671;48.922;2.346;2022-09-12T04:31:10;18.50;15.25;10.50
62599;PMS7003;48671;48.922;2.346;2022-09-12T04:33:38;18.00;18.00;13.00
62599;PMS7003;48671;48.922;2.346;2022-09-12T04:36:10;19.25;16.00;10.50
62599;PMS7003;48671;48.922;2.346;2022-09-12T04:38:41;19.75;16.25;11.00
62599;PMS7003;48671;48.922;2.346;2022-09-12T04:43:50;20.00;18.25;11.75
62599;PMS7003;48671;48.922;2.346;2022-09-12T04:46:17;21.25;17.75;12.50
62599;PMS7003;48671;48.922;2.346;2022-09-12T04:48:44;20.50;19.75;12.00
62599;PMS7003;48671;48.922;2.346;2022-09-12T04:51:11;19.75;17.00;12.00
62599;PMS7003;48671;48.922;2.346;2022-09-12T04:53:49;19.25;18.75;12.75
62599;PMS7003;48671;48.922;2.346;2022-09-12T04:56:16;18.00;15.75;10.75
62599;PMS7003;48671;48.922;2.346;2022-09-12T04:58:41;18.75;16.25;12.00
62599;PMS7003;48671;48.922;2.346;2022-09-12T05:01:08;17.25;14.75;10.75
62599;PMS7003;48671;48.922;2.346;2022-09-12T05:03:34;18.75;17.25;12.50
62599;PMS7003;48671;48.922;2.346;2022-09-12T05:06:03;19.00;18.75;12.75
62599;PMS7003;48671;48.922;2.346;2022-09-12T05:08:30;19.00;15.25;11.25
62599;PMS7003;48671;48.922;2.346;2022-09-12T05:10:55;18.25;15.50;11.25
62599;PMS7003;48671;48.922;2.346;2022-09-12T05:13:21;16.50;14.75;11.00
62599;PMS7003;48671;48.922;2.346;2022-09-12T05:15:56;29.25;28.50;19.00
62599;PMS7003;48671;48.922;2.346;2022-09-12T05:18:22;16.75;16.00;12.25
62599;PMS7003;48671;48.922;2.346;2022-09-12T05:20:47;19.75;16.50;10.25
62599;PMS7003;48671;48.922;2.346;2022-09-12T05:23:13;14.00;13.75;10.00
62599;PMS7003;48671;48.922;2.346;2022-09-12T05:25:38;16.25;16.00;9.75
62599;PMS7003;48671;48.922;2.346;2022-09-12T05:28:03;17.50;16.00;9.75
62599;PMS7003;48671;48.922;2.346;2022-09-12T05:30:29;19.25;16.75;12.25
62599;PMS7003;48671;48.922;2.346;2022-09-12T05:32:54;19.00;16.00;9.75
62599;PMS7003;48671;48.922;2.346;2022-09-12T05:35:20;12.00;9.25;5.25
62599;PMS7003;48671;48.922;2.346;2022-09-12T05:37:45;20.50;20.50;12.25
62599;PMS7003;48671;48.922;2.346;2022-09-12T05:40:10;17.67;14.00;9.00
62599;PMS7003;48671;48.922;2.346;2022-09-12T05:42:38;17.75;16.50;12.25
62599;PMS7003;48671;48.922;2.346;2022-09-12T05:45:03;20.00;17.67;11.00
62599;PMS7003;48671;48.922;2.346;2022-09-12T05:47:29;18.75;17.25;12.25
62599;PMS7003;48671;48.922;2.346;2022-09-12T05:49:55;24.75;20.75;13.75
62599;PMS7003;48671;48.922;2.346;2022-09-12T05:52:21;18.00;18.00;10.75
62599;PMS7003;48671;48.922;2.346;2022-09-12T05:54:46;20.25;18.00;13.25
62599;PMS7003;48671;48.922;2.346;2022-09-12T05:57:12;21.00;19.50;12.25
62599;PMS7003;48671;48.922;2.346;2022-09-12T05:59:37;15.00;14.25;9.00
62599;PMS7003;48671;48.922;2.346;2022-09-12T06:02:03;23.25;20.25;11.00
62599;PMS7003;48671;48.922;2.346;2022-09-12T06:04:28;18.50;18.00;11.75
62599;PMS7003;48671;48.922;2.346;2022-09-12T06:06:53;20.67;18.00;12.33
62599;PMS7003;48671;48.922;2.346;2022-09-12T06:09:19;23.75;16.25;11.25
62599;PMS7003;48671;48.922;2.346;2022-09-12T06:11:45;19.00;15.50;11.50
62599;PMS7003;48671;48.922;2.346;2022-09-12T06:14:11;17.00;17.00;11.50
62599;PMS7003;48671;48.922;2.346;2022-09-12T06:16:38;21.00;13.25;9.00
62599;PMS7003;48671;48.922;2.346;2022-09-12T06:19:05;21.00;18.00;12.00
62599;PMS7003;48671;48.922;2.346;2022-09-12T06:21:32;17.50;16.00;11.00
62599;PMS7003;48671;48.922;2.346;2022-09-12T06:23:59;22.50;19.25;10.75
62599;PMS7003;48671;48.922;2.346;2022-09-12T06:26:25;21.25;19.25;11.00
62599;PMS7003;48671;48.922;2.346;2022-09-12T06:28:53;21.00;17.75;12.75
62599;PMS7003;48671;48.922;2.346;2022-09-12T06:31:24;15.25;13.75;10.00
62599;PMS7003;48671;48.922;2.346;2022-09-12T06:33:52;20.00;15.75;11.50
62599;PMS7003;48671;48.922;2.346;2022-09-12T06:36:20;26.75;21.00;12.00
62599;PMS7003;48671;48.922;2.346;2022-09-12T06:38:52;22.00;18.00;11.00
62599;PMS7003;48671;48.922;2.346;2022-09-12T06:41:19;23.00;18.00;12.25
62599;PMS7003;48671;48.922;2.346;2022-09-12T06:43:44;19.75;15.75;11.00
62599;PMS7003;48671;48.922;2.346;2022-09-12T06:46:10;20.75;17.00;11.00
62599;PMS7003;48671;48.922;2.346;2022-09-12T06:48:37;19.00;16.50;12.75
62599;PMS7003;48671;48.922;2.346;2022-09-12T06:51:05;20.50;18.00;11.00
62599;PMS7003;48671;48.922;2.346;2022-09-12T06:53:33;22.75;20.50;11.25
62599;PMS7003;48671;48.922;2.346;2022-09-12T06:56:03;18.25;16.50;12.25
62599;PMS7003;48671;48.922;2.346;2022-09-12T06:58:34;19.50;17.25;11.00
62599;PMS7003;48671;48.922;2.346;2022-09-12T07:01:04;27.50;17.75;12.00
62599;PMS7003;48671;48.922;2.346;2022-09-12T07:03:37;19.75;19.25;13.50
62599;PMS7003;48671;48.922;2.346;2022-09-12T07:06:04;20.25;16.00;12.00
62599;PMS7003;48671;48.922;2.346;2022-09-12T07:08:31;24.75;19.25;12.75
62599;PMS7003;48671;48.922;2.346;2022-09-12T07:11:07;18.50;17.50;11.25
62599;PMS7003;48671;48.922;2.346;2022-09-12T07:13:35;14.75;13.00;11.00
62599;PMS7003;48671;48.922;2.346;2022-09-12T07:16:00;22.67;19.33;14.00
62599;PMS7003;48671;48.922;2.346;2022-09-12T07:18:26;21.25;20.25;13.25
62599;PMS7003;48671;48.922;2.346;2022-09-12T07:20:53;20.75;17.00;12.00
62599;PMS7003;48671;48.922;2.346;2022-09-12T07:23:18;21.50;19.25;13.00
62599;PMS7003;48671;48.922;2.346;2022-09-12T07:25:50;21.25;18.25;14.00
62599;PMS7003;48671;48.922;2.346;2022-09-12T07:28:17;27.25;18.50;12.75
62599;PMS7003;48671;48.922;2.346;2022-09-12T07:30:42;20.00;18.00;12.00
62599;PMS7003;48671;48.922;2.346;2022-09-12T07:33:07;23.50;17.50;12.00
62599;PMS7003;48671;48.922;2.346;2022-09-12T07:35:32;21.50;19.00;13.50
62599;PMS7003;48671;48.922;2.346;2022-09-12T07:37:58;20.00;17.00;12.00
62599;PMS7003;48671;48.922;2.346;2022-09-12T07:40:23;19.75;19.25;13.00
62599;PMS7003;48671;48.922;2.346;2022-09-12T07:42:48;24.00;17.75;12.50
62599;PMS7003;48671;48.922;2.346;2022-09-12T07:45:14;19.50;15.25;11.00
62599;PMS7003;48671;48.922;2.346;2022-09-12T07:47:39;17.00;16.25;12.00
62599;PMS7003;48671;48.922;2.346;2022-09-12T07:50:05;15.00;15.00;13.00
62599;PMS7003;48671;48.922;2.346;2022-09-12T07:52:31;20.50;18.00;12.75
62599;PMS7003;48671;48.922;2.346;2022-09-12T07:54:56;23.00;21.00;14.00
62599;PMS7003;48671;48.922;2.346;2022-09-12T07:57:21;22.50;19.50;12.50
62599;PMS7003;48671;48.922;2.346;2022-09-12T07:59:46;18.75;17.25;12.00
62599;PMS7003;48671;48.922;2.346;2022-09-12T08:02:12;17.75;16.25;11.75
62599;PMS7003;48671;48.922;2.346;2022-09-12T08:04:38;19.00;17.50;11.50
62599;PMS7003;48671;48.922;2.346;2022-09-12T08:07:04;17.00;17.00;13.00
62599;PMS7003;48671;48.922;2.346;2022-09-12T08:09:30;20.00;19.00;13.00
62599;PMS7003;48671;48.922;2.346;2022-09-12T08:11:56;18.25;18.00;11.75
62599;PMS7003;48671;48.922;2.346;2022-09-12T08:14:21;15.25;13.50;9.50
62599;PMS7003;48671;48.922;2.346;2022-09-12T08:16:46;17.50;14.75;10.75
62599;PMS7003;48671;48.922;2.346;2022-09-12T08:19:12;17.00;15.25;10.75
62599;PMS7003;48671;48.922;2.346;2022-09-12T08:21:37;14.25;13.75;10.25
62599;PMS7003;48671;48.922;2.346;2022-09-12T08:24:03;16.00;15.75;12.75
62599;PMS7003;48671;48.922;2.346;2022-09-12T08:26:30;15.25;15.25;10.25
62599;PMS7003;48671;48.922;2.346;2022-09-12T08:28:57;19.00;15.00;10.50
62599;PMS7003;48671;48.922;2.346;2022-09-12T08:31:23;15.50;14.00;10.25
62599;PMS7003;48671;48.922;2.346;2022-09-12T08:33:51;17.75;17.75;12.50
62599;PMS7003;48671;48.922;2.346;2022-09-12T08:36:23;20.75;16.25;12.00
62599;PMS7003;48671;48.922;2.346;2022-09-12T08:38:52;20.25;17.25;11.50
62599;PMS7003;48671;48.922;2.346;2022-09-12T08:41:30;21.25;17.00;13.00
62599;PMS7003;48671;48.922;2.346;2022-09-12T08:52:31;12.50;11.00;9.00
62599;PMS7003;48671;48.922;2.346;2022-09-12T08:55:24;18.25;16.25;11.00
62599;PMS7003;48671;48.922;2.346;2022-09-12T08:57:55;15.50;15.50;11.25
62599;PMS7003;48671;48.922;2.346;2022-09-12T09:00:20;17.50;14.75;10.25
62599;PMS7003;48671;48.922;2.346;2022-09-12T09:03:19;13.25;8.25;5.75
62599;PMS7003;48671;48.922;2.346;2022-09-12T09:05:49;10.50;9.00;7.00
62599;PMS7003;48671;48.922;2.346;2022-09-12T09:16:32;9.50;9.50;7.50
62599;PMS7003;48671;48.922;2.346;2022-09-12T09:19:03;8.00;7.50;6.25
62599;PMS7003;48671;48.922;2.346;2022-09-12T09:21:45;17.50;12.50;7.75
62599;PMS7003;48671;48.922;2.346;2022-09-12T09:24:25;10.25;10.00;7.75
62599;PMS7003;48671;48.922;2.346;2022-09-12T09:27:01;11.00;9.25;6.00
62599;PMS7003;48671;48.922;2.346;2022-09-12T09:29:42;7.25;7.25;5.75
62599;PMS7003;48671;48.922;2.346;2022-09-12T09:32:18;9.75;7.75;4.75
62599;PMS7003;48671;48.922;2.346;2022-09-12T09:34:50;7.50;7.50;5.75
62599;PMS7003;48671;48.922;2.346;2022-09-12T09:37:19;7.25;7.00;5.25
62599;PMS7003;48671;48.922;2.346;2022-09-12T09:40:13;6.50;6.50;4.75
62599;PMS7003;48671;48.922;2.346;2022-09-12T09:45:39;9.75;7.50;5.50
62599;PMS7003;48671;48.922;2.346;2022-09-12T09:48:20;10.50;8.50;6.00
62599;PMS7003;48671;48.922;2.346;2022-09-12T09:50:50;5.00;5.00;4.00
62599;PMS7003;48671;48.922;2.346;2022-09-12T09:55:57;7.25;6.50;3.00
62599;PMS7003;48671;48.922;2.346;2022-09-12T09:58:33;5.75;5.75;4.00
62599;PMS7003;48671;48.922;2.346;2022-09-12T10:01:04;10.00;7.00;5.00
62599;PMS7003;48671;48.922;2.346;2022-09-12T10:03:36;4.25;3.50;3.25
62599;PMS7003;48671;48.922;2.346;2022-09-12T10:06:07;5.00;5.00;4.75
62599;PMS7003;48671;48.922;2.346;2022-09-12T10:08:49;5.50;5.00;4.00
62599;PMS7003;48671;48.922;2.346;2022-09-12T10:16:16;4.25;4.25;2.75
62599;PMS7003;48671;48.922;2.346;2022-09-12T10:18:49;4.00;4.00;3.00
62599;PMS7003;48671;48.922;2.346;2022-09-12T10:21:35;5.00;4.50;3.00
62599;PMS7003;48671;48.922;2.346;2022-09-12T10:26:43;4.00;4.00;3.00
62599;PMS7003;48671;48.922;2.346;2022-09-12T10:29:27;6.75;5.00;2.50
62599;PMS7003;48671;48.922;2.346;2022-09-12T10:32:00;3.25;3.25;3.00
62599;PMS7003;48671;48.922;2.346;2022-09-12T10:34:33;2.75;2.75;1.75
62599;PMS7003;48671;48.922;2.346;2022-09-12T10:37:03;3.50;3.50;2.00
62599;PMS7003;48671;48.922;2.346;2022-09-12T10:39:33;0.50;0.25;0.25
62599;PMS7003;48671;48.922;2.346;2022-09-12T10:42:00;2.50;2.00;1.25
62599;PMS7003;48671;48.922;2.346;2022-09-12T10:44:31;1.25;1.25;0.75
62599;PMS7003;48671;48.922;2.346;2022-09-12T10:46:59;1.75;1.75;1.00
62599;PMS7003;48671;48.922;2.346;2022-09-12T10:49:43;1.25;1.25;1.25
62599;PMS7003;48671;48.922;2.346;2022-09-12T10:52:22;1.25;1.25;0.25
62599;PMS7003;48671;48.922;2.346;2022-09-12T10:54:51;2.00;2.00;1.25
62599;PMS7003;48671;48.922;2.346;2022-09-12T11:00:12;3.50;2.25;1.25
62599;PMS7003;48671;48.922;2.346;2022-09-12T11:05:14;1.50;1.50;1.25
62599;PMS7003;48671;48.922;2.346;2022-09-12T11:10:40;2.50;2.50;1.25
62599;PMS7003;48671;48.922;2.346;2022-09-12T11:23:41;2.25;2.25;2.00
62599;PMS7003;48671;48.922;2.346;2022-09-12T11:37:35;2.50;1.00;0.50
62599;PMS7003;48671;48.922;2.346;2022-09-12T11:40:26;3.75;3.00;2.00
62599;PMS7003;48671;48.922;2.346;2022-09-12T11:43:04;3.75;2.00;2.00
62599;PMS7003;48671;48.922;2.346;2022-09-12T11:45:40;4.00;4.00;2.25
62599;PMS7003;48671;48.922;2.346;2022-09-12T11:48:13;4.75;3.00;2.00
62599;PMS7003;48671;48.922;2.346;2022-09-12T11:50:45;1.75;1.00;0.00
62599;PMS7003;48671;48.922;2.346;2022-09-12T11:53:16;1.25;1.25;0.75
62599;PMS7003;48671;48.922;2.346;2022-09-12T11:55:49;2.25;1.00;1.00
62599;PMS7003;48671;48.922;2.346;2022-09-12T11:58:21;5.75;4.00;1.50
62599;PMS7003;48671;48.922;2.346;2022-09-12T12:00:50;3.50;2.00;1.50
62599;PMS7003;48671;48.922;2.346;2022-09-12T12:06:03;0.25;0.25;0.00
62599;PMS7003;48671;48.922;2.346;2022-09-12T12:08:30;2.25;1.50;1.00
62599;PMS7003;48671;48.922;2.346;2022-09-12T12:11:03;1.00;1.00;1.00
62599;PMS7003;48671;48.922;2.346;2022-09-12T12:16:13;1.25;1.25;1.00
62599;PMS7003;48671;48.922;2.346;2022-09-12T12:18:52;2.00;1.00;1.00
62599;PMS7003;48671;48.922;2.346;2022-09-12T12:34:32;1.00;1.00;1.00
62599;PMS7003;48671;48.922;2.346;2022-09-12T12:44:59;0.00;0.00;0.00
62599;PMS7003;48671;48.922;2.346;2022-09-12T12:47:24;1.00;1.00;0.75
62599;PMS7003;48671;48.922;2.346;2022-09-12T12:49:56;1.00;1.00;1.00
62599;PMS7003;48671;48.922;2.346;2022-09-12T12:52:26;1.25;1.25;1.00
62599;PMS7003;48671;48.922;2.346;2022-09-12T12:55:02;2.50;2.50;1.00
62599;PMS7003;48671;48.922;2.346;2022-09-12T13:05:36;1.00;1.00;0.00
62599;PMS7003;48671;48.922;2.346;2022-09-12T13:08:06;1.25;1.25;1.00
62599;PMS7003;48671;48.922;2.346;2022-09-12T13:10:35;0.00;0.00;0.00
62599;PMS7003;48671;48.922;2.346;2022-09-12T13:13:03;3.50;1.75;1.00
62599;PMS7003;48671;48.922;2.346;2022-09-12T13:18:00;2.25;2.25;1.25
62599;PMS7003;48671;48.922;2.346;2022-09-12T13:20:31;2.00;2.00;1.00
62599;PMS7003;48671;48.922;2.346;2022-09-12T13:23:02;1.00;1.00;1.00
62599;PMS7003;48671;48.922;2.346;2022-09-12T13:25:34;3.75;2.25;1.75
62599;PMS7003;48671;48.922;2.346;2022-09-12T13:28:05;2.00;0.50;0.00
62599;PMS7003;48671;48.922;2.346;2022-09-12T13:31:23;1.00;0.00;0.00
62599;PMS7003;48671;48.922;2.346;2022-09-12T13:33:35;0.75;0.75;0.00
62599;PMS7003;48671;48.922;2.346;2022-09-12T13:44:14;1.25;1.00;0.00
62599;PMS7003;48671;48.922;2.346;2022-09-12T13:46:42;0.25;0.25;0.00
62599;PMS7003;48671;48.922;2.346;2022-09-12T13:49:21;1.50;1.00;0.25
62599;PMS7003;48671;48.922;2.346;2022-09-12T13:52:35;1.00;1.00;1.00
62599;PMS7003;48671;48.922;2.346;2022-09-12T13:54:45;2.75;2.75;2.00
62599;PMS7003;48671;48.922;2.346;2022-09-12T13:57:27;2.00;2.00;1.00
62599;PMS7003;48671;48.922;2.346;2022-09-12T13:59:55;2.25;2.25;1.75
62599;PMS7003;48671;48.922;2.346;2022-09-12T14:05:45;2.00;2.00;1.75
62599;PMS7003;48671;48.922;2.346;2022-09-12T14:08:19;2.25;1.75;1.00
62599;PMS7003;48671;48.922;2.346;2022-09-12T14:10:47;1.00;1.00;1.00
62599;PMS7003;48671;48.922;2.346;2022-09-12T14:13:15;1.25;1.25;0.75
62599;PMS7003;48671;48.922;2.346;2022-09-12T14:15:48;1.00;1.00;0.75
62599;PMS7003;48671;48.922;2.346;2022-09-12T14:18:21;3.00;1.75;1.00
62599;PMS7003;48671;48.922;2.346;2022-09-12T14:20:51;1.50;1.50;0.75
62599;PMS7003;48671;48.922;2.346;2022-09-12T14:23:25;1.00;1.00;1.00
62599;PMS7003;48671;48.922;2.346;2022-09-12T14:25:53;1.25;1.25;0.50
62599;PMS7003;48671;48.922;2.346;2022-09-12T14:28:20;2.00;2.00;1.00
62599;PMS7003;48671;48.922;2.346;2022-09-12T14:31:47;0.00;0.00;0.00
62599;PMS7003;48671;48.922;2.346;2022-09-12T14:38:41;2.00;2.00;1.00
62599;PMS7003;48671;48.922;2.346;2022-09-12T14:41:09;1.00;1.00;0.50
62599;PMS7003;48671;48.922;2.346;2022-09-12T14:43:41;2.00;2.00;1.00
62599;PMS7003;48671;48.922;2.346;2022-09-12T14:46:16;0.25;0.25;0.25
62599;PMS7003;48671;48.922;2.346;2022-09-12T14:48:48;1.00;1.00;0.00
62599;PMS7003;48671;48.922;2.346;2022-09-12T14:51:21;1.00;1.00;0.25
62599;PMS7003;48671;48.922;2.346;2022-09-12T14:53:51;1.00;1.00;0.75
62599;PMS7003;48671;48.922;2.346;2022-09-12T14:56:16;2.00;0.00;0.00
62599;PMS7003;48671;48.922;2.346;2022-09-12T14:58:45;1.00;1.00;0.00
62599;PMS7003;48671;48.922;2.346;2022-09-12T15:08:58;0.75;0.75;0.25
62599;PMS7003;48671;48.922;2.346;2022-09-12T15:11:26;0.00;0.00;0.00
62599;PMS7003;48671;48.922;2.346;2022-09-12T15:13:51;2.50;1.00;1.00
62599;PMS7003;48671;48.922;2.346;2022-09-12T15:16:17;0.25;0.25;0.00
62599;PMS7003;48671;48.922;2.346;2022-09-12T15:18:42;0.25;0.25;0.00
62599;PMS7003;48671;48.922;2.346;2022-09-12T15:21:10;1.00;1.00;0.75
62599;PMS7003;48671;48.922;2.346;2022-09-12T15:23:44;3.00;2.00;1.00
62599;PMS7003;48671;48.922;2.346;2022-09-12T15:26:15;3.00;2.00;1.00
62599;PMS7003;48671;48.922;2.346;2022-09-12T15:28:45;1.00;1.00;0.00
62599;PMS7003;48671;48.922;2.346;2022-09-12T15:33:50;1.00;1.00;0.00
62599;PMS7003;48671;48.922;2.346;2022-09-12T15:36:16;2.50;1.00;1.00
62599;PMS7003;48671;48.922;2.346;2022-09-12T15:38:44;0.75;0.75;0.50
62599;PMS7003;48671;48.922;2.346;2022-09-12T15:41:30;1.00;1.00;1.00
62599;PMS7003;48671;48.922;2.346;2022-09-12T15:43:57;0.00;0.00;0.00
62599;PMS7003;48671;48.922;2.346;2022-09-12T15:46:23;1.50;0.25;0.00
62599;PMS7003;48671;48.922;2.346;2022-09-12T15:48:48;1.75;1.75;1.75
62599;PMS7003;48671;48.922;2.346;2022-09-12T15:51:15;2.00;1.00;0.00
62599;PMS7003;48671;48.922;2.346;2022-09-12T15:53:43;2.25;0.50;0.00
62599;PMS7003;48671;48.922;2.346;2022-09-12T15:56:09;0.00;0.00;0.00
62599;PMS7003;48671;48.922;2.346;2022-09-12T15:58:35;0.50;0.00;0.00
62599;PMS7003;48671;48.922;2.346;2022-09-12T16:01:00;0.75;0.75;0.75
62599;PMS7003;48671;48.922;2.346;2022-09-12T16:03:27;1.00;1.00;0.00
62599;PMS7003;48671;48.922;2.346;2022-09-12T16:05:57;0.00;0.00;0.00
62599;PMS7003;48671;48.922;2.346;2022-09-12T16:08:25;0.00;0.00;0.00
62599;PMS7003;48671;48.922;2.346;2022-09-12T16:10:54;0.00;0.00;0.00
62599;PMS7003;48671;48.922;2.346;2022-09-12T16:13:22;1.75;1.75;1.00
62599;PMS7003;48671;48.922;2.346;2022-09-12T16:15:49;1.00;1.00;1.00
62599;PMS7003;48671;48.922;2.346;2022-09-12T16:18:15;0.00;0.00;0.00
62599;PMS7003;48671;48.922;2.346;2022-09-12T16:20:40;1.00;1.00;0.25
62599;PMS7003;48671;48.922;2.346;2022-09-12T16:23:06;1.00;1.00;1.00
62599;PMS7003;48671;48.922;2.346;2022-09-12T16:25:33;0.00;0.00;0.00
62599;PMS7003;48671;48.922;2.346;2022-09-12T16:27:59;0.00;0.00;0.00
62599;PMS7003;48671;48.922;2.346;2022-09-12T16:30:25;1.25;1.25;0.00
62599;PMS7003;48671;48.922;2.346;2022-09-12T16:32:51;2.25;1.00;1.00
62599;PMS7003;48671;48.922;2.346;2022-09-12T16:35:16;3.25;2.25;1.00
62599;PMS7003;48671;48.922;2.346;2022-09-12T16:37:42;2.00;1.50;1.00
62599;PMS7003;48671;48.922;2.346;2022-09-12T16:40:07;1.00;1.00;1.00
62599;PMS7003;48671;48.922;2.346;2022-09-12T16:42:33;1.00;1.00;0.75
62599;PMS7003;48671;48.922;2.346;2022-09-12T16:44:59;2.25;0.50;0.00
62599;PMS7003;48671;48.922;2.346;2022-09-12T16:47:25;1.00;1.00;1.00
62599;PMS7003;48671;48.922;2.346;2022-09-12T16:49:50;1.75;1.75;1.00
62599;PMS7003;48671;48.922;2.346;2022-09-12T16:52:15;3.00;1.00;1.00
62599;PMS7003;48671;48.922;2.346;2022-09-12T16:54:42;1.25;1.25;0.75
62599;PMS7003;48671;48.922;2.346;2022-09-12T16:57:08;1.50;1.00;1.00
62599;PMS7003;48671;48.922;2.346;2022-09-12T16:59:34;1.50;0.75;0.00
62599;PMS7003;48671;48.922;2.346;2022-09-12T17:02:00;1.00;1.00;0.00